sensor_id;sensor_type;location;lat;lon;timestamp;temperature;humidity
39621;DHT22;25309;48.686;9.170;2022-08-21T00:00:17;17.70;99.90
39621;DHT22;25309;48.686;9.170;2022-08-21T00:02:47;17.60;99.90
39621;DHT22;25309;48.686;9.170;2022-08-21T00:05:15;17.60;99.90
39621;DHT22;25309;48.686;9.170;2022-08-21T00:07:42;17.60;99.90
39621;DHT22;25309;48.686;9.170;2022-08-21T00:10:10;17.60;99.90
39621;DHT22;25309;48.686;9.170;2022-08-21T00:16:03;17.60;99.90
39621;DHT22;25309;48.686;9.170;2022-08-21T00:18:30;17.50;99.90
39621;DHT22;25309;48.686;9.170;2022-08-21T00:20:58;17.40;99.90
39621;DHT22;25309;48.686;9.170;2022-08-21T00:23:25;17.40;99.90
39621;DHT22;25309;48.686;9.170;2022-08-21T00:26:24;17.40;99.90
39621;DHT22;25309;48.686;9.170;2022-08-21T00:29:38;17.40;99.90
39621;DHT22;25309;48.686;9.170;2022-08-21T00:32:06;17.40;99.90
39621;DHT22;25309;48.686;9.170;2022-08-21T00:34:33;17.30;99.90
39621;DHT22;25309;48.686;9.170;2022-08-21T00:37:26;17.30;99.90
39621;DHT22;25309;48.686;9.170;2022-08-21T00:39:56;17.40;99.90
39621;DHT22;25309;48.686;9.170;2022-08-21T00:42:23;17.40;99.90
39621;DHT22;25309;48.686;9.170;2022-08-21T00:44:50;17.40;99.90
39621;DHT22;25309;48.686;9.170;2022-08-21T00:47:19;17.30;99.90
39621;DHT22;25309;48.686;9.170;2022-08-21T00:49:46;17.30;99.90
39621;DHT22;25309;48.686;9.170;2022-08-21T00:52:18;17.30;99.90
39621;DHT22;25309;48.686;9.170;2022-08-21T00:54:46;17.20;99.90
39621;DHT22;25309;48.686;9.170;2022-08-21T00:57:17;17.20;99.90
39621;DHT22;25309;48.686;9.170;2022-08-21T00:59:49;17.20;99.90
39621;DHT22;25309;48.686;9.170;2022-08-21T01:02:20;17.20;99.90
39621;DHT22;25309;48.686;9.170;2022-08-21T01:04:48;17.10;99.90
39621;DHT22;25309;48.686;9.170;2022-08-21T01:07:16;17.00;99.90
39621;DHT22;25309;48.686;9.170;2022-08-21T01:09:46;17.10;99.90
39621;DHT22;25309;48.686;9.170;2022-08-21T01:12:14;17.00;99.90
39621;DHT22;25309;48.686;9.170;2022-08-21T01:14:42;17.00;99.90
39621;DHT22;25309;48.686;9.170;2022-08-21T01:17:12;16.90;99.90
39621;DHT22;25309;48.686;9.170;2022-08-21T01:19:41;16.90;99.90
39621;DHT22;25309;48.686;9.170;2022-08-21T01:22:10;16.90;99.90
39621;DHT22;25309;48.686;9.170;2022-08-21T01:24:37;16.80;99.90
39621;DHT22;25309;48.686;9.170;2022-08-21T01:27:05;16.80;99.90
39621;DHT22;25309;48.686;9.170;2022-08-21T01:29:36;16.70;99.90
39621;DHT22;25309;48.686;9.170;2022-08-21T01:32:06;16.70;99.90
39621;DHT22;25309;48.686;9.170;2022-08-21T01:34:34;16.60;99.90
39621;DHT22;25309;48.686;9.170;2022-08-21T01:37:03;16.60;99.90
39621;DHT22;25309;48.686;9.170;2022-08-21T01:39:31;16.50;99.90
39621;DHT22;25309;48.686;9.170;2022-08-21T01:41:58;16.50;99.90
39621;DHT22;25309;48.686;9.170;2022-08-21T01:44:26;16.50;99.90
39621;DHT22;25309;48.686;9.170;2022-08-21T01:46:53;16.50;99.90
39621;DHT22;25309;48.686;9.170;2022-08-21T01:49:21;16.50;99.90
39621;DHT22;25309;48.686;9.170;2022-08-21T01:51:48;16.40;99.90
39621;DHT22;25309;48.686;9.170;2022-08-21T01:54:15;16.40;99.90
39621;DHT22;25309;48.686;9.170;2022-08-21T01:56:46;16.40;99.90
39621;DHT22;25309;48.686;9.170;2022-08-21T01:59:14;16.40;99.90
39621;DHT22;25309;48.686;9.170;2022-08-21T02:01:41;16.30;99.90
39621;DHT22;25309;48.686;9.170;2022-08-21T02:04:09;16.30;99.90
39621;DHT22;25309;48.686;9.170;2022-08-21T02:06:37;16.30;99.90
39621;DHT22;25309;48.686;9.170;2022-08-21T02:09:06;16.30;99.90
39621;DHT22;25309;48.686;9.170;2022-08-21T02:11:34;16.30;99.90
39621;DHT22;25309;48.686;9.170;2022-08-21T02:14:02;16.20;99.90
39621;DHT22;25309;48.686;9.170;2022-08-21T02:16:29;16.20;99.90
39621;DHT22;25309;48.686;9.170;2022-08-21T02:18:58;16.10;99.90
39621;DHT22;25309;48.686;9.170;2022-08-21T02:21:25;16.10;99.90
39621;DHT22;25309;48.686;9.170;2022-08-21T02:23:52;16.00;99.90
39621;DHT22;25309;48.686;9.170;2022-08-21T02:26:19;16.00;99.90
39621;DHT22;25309;48.686;9.170;2022-08-21T02:28:50;16.00;99.90
39621;DHT22;25309;48.686;9.170;2022-08-21T02:31:21;16.00;99.90
39621;DHT22;25309;48.686;9.170;2022-08-21T02:33:48;16.00;99.90
39621;DHT22;25309;48.686;9.170;2022-08-21T02:36:15;16.00;99.90
39621;DHT22;25309;48.686;9.170;2022-08-21T02:38:43;16.00;99.90
39621;DHT22;25309;48.686;9.170;2022-08-21T02:41:12;16.00;99.90
39621;DHT22;25309;48.686;9.170;2022-08-21T02:47:52;15.90;99.90
39621;DHT22;25309;48.686;9.170;2022-08-21T02:50:24;15.90;99.90
39621;DHT22;25309;48.686;9.170;2022-08-21T02:52:53;15.90;99.90
39621;DHT22;25309;48.686;9.170;2022-08-21T02:55:22;15.80;99.90
39621;DHT22;25309;48.686;9.170;2022-08-21T02:57:50;15.70;99.90
39621;DHT22;25309;48.686;9.170;2022-08-21T03:00:17;15.60;99.90
39621;DHT22;25309;48.686;9.170;2022-08-21T03:02:44;15.60;99.90
39621;DHT22;25309;48.686;9.170;2022-08-21T03:05:14;15.50;99.90
39621;DHT22;25309;48.686;9.170;2022-08-21T03:07:42;15.50;99.90
39621;DHT22;25309;48.686;9.170;2022-08-21T03:10:09;15.50;99.90
39621;DHT22;25309;48.686;9.170;2022-08-21T03:12:37;15.40;99.90
39621;DHT22;25309;48.686;9.170;2022-08-21T03:15:05;15.40;99.90
39621;DHT22;25309;48.686;9.170;2022-08-21T03:17:33;15.40;99.90
39621;DHT22;25309;48.686;9.170;2022-08-21T03:20:00;15.40;99.90
39621;DHT22;25309;48.686;9.170;2022-08-21T03:22:29;15.40;99.90
39621;DHT22;25309;48.686;9.170;2022-08-21T03:24:56;15.30;99.90
39621;DHT22;25309;48.686;9.170;2022-08-21T03:27:24;15.30;99.90
39621;DHT22;25309;48.686;9.170;2022-08-21T03:29:51;15.20;99.90
39621;DHT22;25309;48.686;9.170;2022-08-21T03:32:19;15.10;99.90
39621;DHT22;25309;48.686;9.170;2022-08-21T03:34:46;15.00;99.90
39621;DHT22;25309;48.686;9.170;2022-08-21T03:37:14;15.00;99.90
39621;DHT22;25309;48.686;9.170;2022-08-21T03:39:42;15.00;99.90
39621;DHT22;25309;48.686;9.170;2022-08-21T03:42:09;15.00;99.90
39621;DHT22;25309;48.686;9.170;2022-08-21T03:44:37;15.00;99.90
39621;DHT22;25309;48.686;9.170;2022-08-21T03:47:06;14.90;99.90
39621;DHT22;25309;48.686;9.170;2022-08-21T03:49:33;14.90;99.90
39621;DHT22;25309;48.686;9.170;2022-08-21T03:52:00;14.80;99.90
39621;DHT22;25309;48.686;9.170;2022-08-21T03:54:27;14.80;99.90
39621;DHT22;25309;48.686;9.170;2022-08-21T03:56:56;14.80;99.90
39621;DHT22;25309;48.686;9.170;2022-08-21T03:59:23;14.70;99.90
39621;DHT22;25309;48.686;9.170;2022-08-21T04:01:52;14.70;99.90
39621;DHT22;25309;48.686;9.170;2022-08-21T04:04:19;14.80;99.90
39621;DHT22;25309;48.686;9.170;2022-08-21T04:06:47;14.70;99.90
39621;DHT22;25309;48.686;9.170;2022-08-21T04:09:14;14.70;99.90
39621;DHT22;25309;48.686;9.170;2022-08-21T04:11:40;14.70;99.90
39621;DHT22;25309;48.686;9.170;2022-08-21T04:14:09;14.70;99.90
39621;DHT22;25309;48.686;9.170;2022-08-21T04:16:36;14.70;99.90
39621;DHT22;25309;48.686;9.170;2022-08-21T04:19:03;14.70;99.90
39621;DHT22;25309;48.686;9.170;2022-08-21T04:21:30;14.70;99.90
39621;DHT22;25309;48.686;9.170;2022-08-21T04:23:57;14.70;99.90
39621;DHT22;25309;48.686;9.170;2022-08-21T04:26:26;14.60;99.90
39621;DHT22;25309;48.686;9.170;2022-08-21T04:28:53;14.60;99.90
39621;DHT22;25309;48.686;9.170;2022-08-21T04:31:21;14.50;99.90
39621;DHT22;25309;48.686;9.170;2022-08-21T04:33:48;14.50;99.90
39621;DHT22;25309;48.686;9.170;2022-08-21T04:36:15;14.60;99.90
39621;DHT22;25309;48.686;9.170;2022-08-21T04:38:46;14.60;99.90
39621;DHT22;25309;48.686;9.170;2022-08-21T04:41:13;14.60;99.90
39621;DHT22;25309;48.686;9.170;2022-08-21T04:43:40;14.50;99.90
39621;DHT22;25309;48.686;9.170;2022-08-21T04:46:07;14.50;99.90
39621;DHT22;25309;48.686;9.170;2022-08-21T04:48:41;14.60;99.90
39621;DHT22;25309;48.686;9.170;2022-08-21T04:51:10;14.60;99.90
39621;DHT22;25309;48.686;9.170;2022-08-21T04:53:41;14.60;99.90
39621;DHT22;25309;48.686;9.170;2022-08-21T04:56:14;14.50;99.90
39621;DHT22;25309;48.686;9.170;2022-08-21T04:58:42;14.50;99.90
39621;DHT22;25309;48.686;9.170;2022-08-21T05:01:16;14.50;99.90
39621;DHT22;25309;48.686;9.170;2022-08-21T05:03:46;14.50;99.90
39621;DHT22;25309;48.686;9.170;2022-08-21T05:06:15;14.60;99.90
39621;DHT22;25309;48.686;9.170;2022-08-21T05:08:45;14.60;99.90
39621;DHT22;25309;48.686;9.170;2022-08-21T05:11:13;14.60;99.90
39621;DHT22;25309;48.686;9.170;2022-08-21T05:13:40;14.70;99.90
39621;DHT22;25309;48.686;9.170;2022-08-21T05:16:08;14.70;99.90
39621;DHT22;25309;48.686;9.170;2022-08-21T05:18:34;14.70;99.90
39621;DHT22;25309;48.686;9.170;2022-08-21T05:21:03;14.70;99.90
39621;DHT22;25309;48.686;9.170;2022-08-21T05:23:31;14.80;99.90
39621;DHT22;25309;48.686;9.170;2022-08-21T05:25:58;14.90;99.90
39621;DHT22;25309;48.686;9.170;2022-08-21T05:28:25;14.90;99.90
39621;DHT22;25309;48.686;9.170;2022-08-21T05:30:53;14.90;99.90
39621;DHT22;25309;48.686;9.170;2022-08-21T05:33:20;15.00;99.90
39621;DHT22;25309;48.686;9.170;2022-08-21T05:35:49;15.00;99.90
39621;DHT22;25309;48.686;9.170;2022-08-21T05:38:19;15.00;99.90
39621;DHT22;25309;48.686;9.170;2022-08-21T05:40:46;15.10;99.90
39621;DHT22;25309;48.686;9.170;2022-08-21T05:43:13;15.10;99.90
39621;DHT22;25309;48.686;9.170;2022-08-21T05:45:40;15.20;99.90
39621;DHT22;25309;48.686;9.170;2022-08-21T05:48:12;15.20;99.90
39621;DHT22;25309;48.686;9.170;2022-08-21T05:50:40;15.20;99.90
39621;DHT22;25309;48.686;9.170;2022-08-21T05:53:08;15.30;99.90
39621;DHT22;25309;48.686;9.170;2022-08-21T05:55:38;15.30;99.90
39621;DHT22;25309;48.686;9.170;2022-08-21T05:58:45;15.30;99.90
39621;DHT22;25309;48.686;9.170;2022-08-21T06:01:34;15.40;99.90
39621;DHT22;25309;48.686;9.170;2022-08-21T06:04:01;15.40;99.90
39621;DHT22;25309;48.686;9.170;2022-08-21T06:06:28;15.50;99.90
39621;DHT22;25309;48.686;9.170;2022-08-21T06:08:55;15.60;99.90
39621;DHT22;25309;48.686;9.170;2022-08-21T06:11:23;15.70;99.90
39621;DHT22;25309;48.686;9.170;2022-08-21T06:13:54;15.70;99.90
39621;DHT22;25309;48.686;9.170;2022-08-21T06:16:21;15.80;99.90
39621;DHT22;25309;48.686;9.170;2022-08-21T06:18:49;15.90;99.90
39621;DHT22;25309;48.686;9.170;2022-08-21T06:21:17;16.00;99.90
39621;DHT22;25309;48.686;9.170;2022-08-21T06:23:44;16.00;99.90
39621;DHT22;25309;48.686;9.170;2022-08-21T06:26:12;16.10;99.90
39621;DHT22;25309;48.686;9.170;2022-08-21T06:28:42;16.20;99.90
39621;DHT22;25309;48.686;9.170;2022-08-21T06:31:15;16.30;99.90
39621;DHT22;25309;48.686;9.170;2022-08-21T06:33:42;16.40;99.90
39621;DHT22;25309;48.686;9.170;2022-08-21T06:36:09;16.50;99.90
39621;DHT22;25309;48.686;9.170;2022-08-21T06:38:36;16.60;99.90
39621;DHT22;25309;48.686;9.170;2022-08-21T06:41:05;16.60;99.90
39621;DHT22;25309;48.686;9.170;2022-08-21T06:43:33;16.80;99.90
39621;DHT22;25309;48.686;9.170;2022-08-21T06:46:07;16.80;99.90
39621;DHT22;25309;48.686;9.170;2022-08-21T06:48:34;16.90;99.90
39621;DHT22;25309;48.686;9.170;2022-08-21T06:51:01;17.00;99.90
39621;DHT22;25309;48.686;9.170;2022-08-21T06:53:29;17.10;99.90
39621;DHT22;25309;48.686;9.170;2022-08-21T06:55:56;17.20;99.90
39621;DHT22;25309;48.686;9.170;2022-08-21T06:58:23;17.30;99.90
39621;DHT22;25309;48.686;9.170;2022-08-21T07:00:50;17.40;99.90
39621;DHT22;25309;48.686;9.170;2022-08-21T07:03:29;17.40;99.90
39621;DHT22;25309;48.686;9.170;2022-08-21T07:05:56;17.60;99.90
39621;DHT22;25309;48.686;9.170;2022-08-21T07:08:26;17.70;99.90
39621;DHT22;25309;48.686;9.170;2022-08-21T07:10:53;17.80;99.90
39621;DHT22;25309;48.686;9.170;2022-08-21T07:13:21;17.90;99.90
39621;DHT22;25309;48.686;9.170;2022-08-21T07:15:48;18.00;99.90
39621;DHT22;25309;48.686;9.170;2022-08-21T07:18:15;18.10;99.90
39621;DHT22;25309;48.686;9.170;2022-08-21T07:20:44;18.20;99.90
39621;DHT22;25309;48.686;9.170;2022-08-21T07:23:19;18.30;99.90
39621;DHT22;25309;48.686;9.170;2022-08-21T07:25:48;18.50;99.90
39621;DHT22;25309;48.686;9.170;2022-08-21T07:28:15;18.60;99.90
39621;DHT22;25309;48.686;9.170;2022-08-21T07:30:42;18.70;99.90
39621;DHT22;25309;48.686;9.170;2022-08-21T07:33:09;18.70;99.90
39621;DHT22;25309;48.686;9.170;2022-08-21T07:35:36;18.80;99.90
39621;DHT22;25309;48.686;9.170;2022-08-21T07:38:04;18.90;99.90
39621;DHT22;25309;48.686;9.170;2022-08-21T07:40:31;19.00;99.90
39621;DHT22;25309;48.686;9.170;2022-08-21T07:42:58;19.10;99.90
39621;DHT22;25309;48.686;9.170;2022-08-21T07:45:25;19.20;99.90
39621;DHT22;25309;48.686;9.170;2022-08-21T07:47:53;19.30;99.90
39621;DHT22;25309;48.686;9.170;2022-08-21T07:50:24;19.30;99.90
39621;DHT22;25309;48.686;9.170;2022-08-21T07:52:51;19.30;99.90
39621;DHT22;25309;48.686;9.170;2022-08-21T07:55:21;19.40;99.90
39621;DHT22;25309;48.686;9.170;2022-08-21T07:57:48;19.60;99.90
39621;DHT22;25309;48.686;9.170;2022-08-21T08:00:18;19.70;99.90
39621;DHT22;25309;48.686;9.170;2022-08-21T08:02:47;19.70;99.90
39621;DHT22;25309;48.686;9.170;2022-08-21T08:05:18;19.90;99.90
39621;DHT22;25309;48.686;9.170;2022-08-21T08:07:46;19.90;99.90
39621;DHT22;25309;48.686;9.170;2022-08-21T08:10:14;20.10;99.90
39621;DHT22;25309;48.686;9.170;2022-08-21T08:12:44;20.20;99.90
39621;DHT22;25309;48.686;9.170;2022-08-21T08:15:14;20.30;99.90
39621;DHT22;25309;48.686;9.170;2022-08-21T08:17:41;20.40;99.90
39621;DHT22;25309;48.686;9.170;2022-08-21T08:20:10;20.50;99.90
39621;DHT22;25309;48.686;9.170;2022-08-21T08:22:38;20.60;99.90
39621;DHT22;25309;48.686;9.170;2022-08-21T08:25:07;20.80;99.90
39621;DHT22;25309;48.686;9.170;2022-08-21T08:27:35;20.90;99.90
39621;DHT22;25309;48.686;9.170;2022-08-21T08:30:06;21.10;99.90
39621;DHT22;25309;48.686;9.170;2022-08-21T08:32:33;21.30;99.90
39621;DHT22;25309;48.686;9.170;2022-08-21T08:35:00;21.30;99.90
39621;DHT22;25309;48.686;9.170;2022-08-21T08:37:27;21.40;99.90
39621;DHT22;25309;48.686;9.170;2022-08-21T08:40:01;21.50;99.90
39621;DHT22;25309;48.686;9.170;2022-08-21T08:42:32;21.60;99.90
39621;DHT22;25309;48.686;9.170;2022-08-21T08:45:05;21.70;99.90
39621;DHT22;25309;48.686;9.170;2022-08-21T08:47:37;21.90;99.90
39621;DHT22;25309;48.686;9.170;2022-08-21T08:50:07;22.00;99.90
39621;DHT22;25309;48.686;9.170;2022-08-21T08:52:39;22.20;99.90
39621;DHT22;25309;48.686;9.170;2022-08-21T08:55:09;22.30;99.90
39621;DHT22;25309;48.686;9.170;2022-08-21T08:57:41;22.50;99.70
39621;DHT22;25309;48.686;9.170;2022-08-21T09:00:12;22.70;98.60
39621;DHT22;25309;48.686;9.170;2022-08-21T09:02:45;22.90;98.50
39621;DHT22;25309;48.686;9.170;2022-08-21T09:05:21;23.10;98.20
39621;DHT22;25309;48.686;9.170;2022-08-21T09:08:02;23.30;97.40
39621;DHT22;25309;48.686;9.170;2022-08-21T09:10:41;23.50;96.10
39621;DHT22;25309;48.686;9.170;2022-08-21T09:13:24;23.60;95.30
39621;DHT22;25309;48.686;9.170;2022-08-21T09:16:03;23.80;95.00
39621;DHT22;25309;48.686;9.170;2022-08-21T09:18:41;24.10;94.40
39621;DHT22;25309;48.686;9.170;2022-08-21T09:21:16;24.40;94.40
39621;DHT22;25309;48.686;9.170;2022-08-21T09:23:54;25.30;92.40
39621;DHT22;25309;48.686;9.170;2022-08-21T09:26:24;27.30;90.50
39621;DHT22;25309;48.686;9.170;2022-08-21T09:28:53;29.40;85.30
39621;DHT22;25309;48.686;9.170;2022-08-21T09:31:25;31.20;79.30
39621;DHT22;25309;48.686;9.170;2022-08-21T09:33:57;32.50;74.40
39621;DHT22;25309;48.686;9.170;2022-08-21T09:36:31;33.50;70.10
39621;DHT22;25309;48.686;9.170;2022-08-21T09:38:59;34.70;66.20
39621;DHT22;25309;48.686;9.170;2022-08-21T09:41:28;35.90;61.60
39621;DHT22;25309;48.686;9.170;2022-08-21T09:43:55;36.80;59.10
39621;DHT22;25309;48.686;9.170;2022-08-21T09:46:25;37.50;57.40
39621;DHT22;25309;48.686;9.170;2022-08-21T09:48:54;38.00;56.80
39621;DHT22;25309;48.686;9.170;2022-08-21T09:51:25;38.00;56.40
39621;DHT22;25309;48.686;9.170;2022-08-21T09:53:56;37.80;55.90
39621;DHT22;25309;48.686;9.170;2022-08-21T09:56:28;37.50;55.50
39621;DHT22;25309;48.686;9.170;2022-08-21T09:59:20;37.10;55.60
39621;DHT22;25309;48.686;9.170;2022-08-21T10:01:53;36.50;56.50
39621;DHT22;25309;48.686;9.170;2022-08-21T10:04:23;36.20;56.00
39621;DHT22;25309;48.686;9.170;2022-08-21T10:06:50;36.00;55.80
39621;DHT22;25309;48.686;9.170;2022-08-21T10:09:22;35.60;55.90
39621;DHT22;25309;48.686;9.170;2022-08-21T10:11:58;35.50;56.60
39621;DHT22;25309;48.686;9.170;2022-08-21T10:14:44;35.60;56.20
39621;DHT22;25309;48.686;9.170;2022-08-21T10:17:21;35.60;56.70
39621;DHT22;25309;48.686;9.170;2022-08-21T10:19:58;35.60;55.60
39621;DHT22;25309;48.686;9.170;2022-08-21T10:22:34;35.50;55.10
39621;DHT22;25309;48.686;9.170;2022-08-21T10:25:11;35.50;54.80
39621;DHT22;25309;48.686;9.170;2022-08-21T10:27:47;35.60;55.50
39621;DHT22;25309;48.686;9.170;2022-08-21T10:30:21;35.60;54.50
39621;DHT22;25309;48.686;9.170;2022-08-21T10:35:59;35.70;55.60
39621;DHT22;25309;48.686;9.170;2022-08-21T10:38:54;35.80;55.60
39621;DHT22;25309;48.686;9.170;2022-08-21T10:42:06;36.00;54.30
39621;DHT22;25309;48.686;9.170;2022-08-21T10:44:45;35.90;54.60
39621;DHT22;25309;48.686;9.170;2022-08-21T10:47:17;35.60;54.40
39621;DHT22;25309;48.686;9.170;2022-08-21T10:49:53;35.10;55.00
39621;DHT22;25309;48.686;9.170;2022-08-21T10:52:39;34.70;55.70
39621;DHT22;25309;48.686;9.170;2022-08-21T10:55:12;34.50;55.70
39621;DHT22;25309;48.686;9.170;2022-08-21T10:57:46;34.40;55.80
39621;DHT22;25309;48.686;9.170;2022-08-21T11:00:16;34.30;56.00
39621;DHT22;25309;48.686;9.170;2022-08-21T11:02:49;34.20;55.90
39621;DHT22;25309;48.686;9.170;2022-08-21T11:05:23;34.40;56.60
39621;DHT22;25309;48.686;9.170;2022-08-21T11:07:54;34.50;55.70
39621;DHT22;25309;48.686;9.170;2022-08-21T11:10:28;34.50;55.90
39621;DHT22;25309;48.686;9.170;2022-08-21T11:13:00;34.60;55.70
39621;DHT22;25309;48.686;9.170;2022-08-21T11:15:33;34.50;55.70
39621;DHT22;25309;48.686;9.170;2022-08-21T11:18:14;34.40;55.70
39621;DHT22;25309;48.686;9.170;2022-08-21T11:20:49;34.40;55.50
39621;DHT22;25309;48.686;9.170;2022-08-21T11:23:20;34.40;55.60
39621;DHT22;25309;48.686;9.170;2022-08-21T11:25:52;34.40;56.00
39621;DHT22;25309;48.686;9.170;2022-08-21T11:28:23;34.30;55.80
39621;DHT22;25309;48.686;9.170;2022-08-21T11:30:57;34.30;56.20
39621;DHT22;25309;48.686;9.170;2022-08-21T11:33:34;34.50;56.10
39621;DHT22;25309;48.686;9.170;2022-08-21T11:36:11;34.60;56.10
39621;DHT22;25309;48.686;9.170;2022-08-21T11:38:41;34.90;55.40
39621;DHT22;25309;48.686;9.170;2022-08-21T11:41:19;35.00;55.20
39621;DHT22;25309;48.686;9.170;2022-08-21T11:43:52;35.10;55.10
39621;DHT22;25309;48.686;9.170;2022-08-21T11:46:29;34.90;55.00
39621;DHT22;25309;48.686;9.170;2022-08-21T11:49:06;34.70;55.10
39621;DHT22;25309;48.686;9.170;2022-08-21T11:51:40;34.40;55.10
39621;DHT22;25309;48.686;9.170;2022-08-21T11:54:19;33.80;55.30
39621;DHT22;25309;48.686;9.170;2022-08-21T11:56:51;33.50;56.50
39621;DHT22;25309;48.686;9.170;2022-08-21T11:59:23;33.60;56.60
39621;DHT22;25309;48.686;9.170;2022-08-21T12:01:52;33.60;56.10
39621;DHT22;25309;48.686;9.170;2022-08-21T12:04:26;33.60;56.00
39621;DHT22;25309;48.686;9.170;2022-08-21T12:06:56;33.70;56.90
39621;DHT22;25309;48.686;9.170;2022-08-21T12:09:32;33.90;56.50
39621;DHT22;25309;48.686;9.170;2022-08-21T12:12:04;34.10;55.20
39621;DHT22;25309;48.686;9.170;2022-08-21T12:14:40;34.30;55.70
39621;DHT22;25309;48.686;9.170;2022-08-21T12:17:09;34.40;55.20
39621;DHT22;25309;48.686;9.170;2022-08-21T12:19:57;34.50;55.30
39621;DHT22;25309;48.686;9.170;2022-08-21T12:22:36;34.60;55.10
39621;DHT22;25309;48.686;9.170;2022-08-21T12:25:07;34.80;54.90
39621;DHT22;25309;48.686;9.170;2022-08-21T12:27:45;34.70;54.20
39621;DHT22;25309;48.686;9.170;2022-08-21T12:30:21;34.60;54.00
39621;DHT22;25309;48.686;9.170;2022-08-21T12:32:58;34.40;55.00
39621;DHT22;25309;48.686;9.170;2022-08-21T12:35:30;34.60;54.00
39621;DHT22;25309;48.686;9.170;2022-08-21T12:38:04;34.20;54.50
39621;DHT22;25309;48.686;9.170;2022-08-21T12:40:39;34.20;55.00
39621;DHT22;25309;48.686;9.170;2022-08-21T12:43:12;34.20;54.10
39621;DHT22;25309;48.686;9.170;2022-08-21T12:45:43;33.90;55.40
39621;DHT22;25309;48.686;9.170;2022-08-21T12:48:16;33.80;55.80
39621;DHT22;25309;48.686;9.170;2022-08-21T12:50:53;33.70;55.00
39621;DHT22;25309;48.686;9.170;2022-08-21T12:53:27;33.30;55.10
39621;DHT22;25309;48.686;9.170;2022-08-21T12:55:55;32.90;55.60
39621;DHT22;25309;48.686;9.170;2022-08-21T12:58:28;32.70;56.30
39621;DHT22;25309;48.686;9.170;2022-08-21T13:01:00;32.80;56.10
39621;DHT22;25309;48.686;9.170;2022-08-21T13:03:28;32.90;55.70
39621;DHT22;25309;48.686;9.170;2022-08-21T13:05:55;32.90;56.40
39621;DHT22;25309;48.686;9.170;2022-08-21T13:08:26;33.20;56.30
39621;DHT22;25309;48.686;9.170;2022-08-21T13:10:58;33.50;56.50
39621;DHT22;25309;48.686;9.170;2022-08-21T13:13:40;33.90;55.10
39621;DHT22;25309;48.686;9.170;2022-08-21T13:16:13;33.90;55.50
39621;DHT22;25309;48.686;9.170;2022-08-21T13:18:53;33.80;55.00
39621;DHT22;25309;48.686;9.170;2022-08-21T13:21:26;33.70;56.00
39621;DHT22;25309;48.686;9.170;2022-08-21T13:24:05;33.30;56.20
39621;DHT22;25309;48.686;9.170;2022-08-21T13:26:53;32.80;56.60
39621;DHT22;25309;48.686;9.170;2022-08-21T13:29:23;32.30;56.90
39621;DHT22;25309;48.686;9.170;2022-08-21T13:31:53;32.20;57.00
39621;DHT22;25309;48.686;9.170;2022-08-21T13:34:21;31.90;57.60
39621;DHT22;25309;48.686;9.170;2022-08-21T13:36:52;31.70;57.90
39621;DHT22;25309;48.686;9.170;2022-08-21T13:39:22;31.40;56.70
39621;DHT22;25309;48.686;9.170;2022-08-21T13:41:53;31.20;57.00
39621;DHT22;25309;48.686;9.170;2022-08-21T13:44:23;31.20;57.70
39621;DHT22;25309;48.686;9.170;2022-08-21T13:46:54;31.60;58.80
39621;DHT22;25309;48.686;9.170;2022-08-21T13:49:28;31.90;58.20
39621;DHT22;25309;48.686;9.170;2022-08-21T13:51:55;32.00;56.40
39621;DHT22;25309;48.686;9.170;2022-08-21T13:54:27;32.10;57.80
39621;DHT22;25309;48.686;9.170;2022-08-21T13:56:55;32.10;57.30
39621;DHT22;25309;48.686;9.170;2022-08-21T13:59:27;32.10;57.40
39621;DHT22;25309;48.686;9.170;2022-08-21T14:01:55;32.20;56.00
39621;DHT22;25309;48.686;9.170;2022-08-21T14:04:31;32.20;56.10
39621;DHT22;25309;48.686;9.170;2022-08-21T14:07:00;32.40;56.10
39621;DHT22;25309;48.686;9.170;2022-08-21T14:09:30;32.40;56.40
39621;DHT22;25309;48.686;9.170;2022-08-21T14:11:59;32.30;55.90
39621;DHT22;25309;48.686;9.170;2022-08-21T14:14:28;32.00;56.60
39621;DHT22;25309;48.686;9.170;2022-08-21T14:16:58;31.90;56.30
39621;DHT22;25309;48.686;9.170;2022-08-21T14:19:28;31.70;56.70
39621;DHT22;25309;48.686;9.170;2022-08-21T14:22:01;31.60;57.40
39621;DHT22;25309;48.686;9.170;2022-08-21T14:24:30;31.60;56.20
39621;DHT22;25309;48.686;9.170;2022-08-21T14:27:03;31.60;57.10
39621;DHT22;25309;48.686;9.170;2022-08-21T14:29:34;31.50;57.50
39621;DHT22;25309;48.686;9.170;2022-08-21T14:32:13;31.50;57.40
39621;DHT22;25309;48.686;9.170;2022-08-21T14:34:47;31.70;57.10
39621;DHT22;25309;48.686;9.170;2022-08-21T14:37:14;32.00;56.70
39621;DHT22;25309;48.686;9.170;2022-08-21T14:39:42;32.20;56.60
39621;DHT22;25309;48.686;9.170;2022-08-21T14:42:12;32.50;55.60
39621;DHT22;25309;48.686;9.170;2022-08-21T14:44:39;32.60;55.20
39621;DHT22;25309;48.686;9.170;2022-08-21T14:47:06;32.60;55.00
39621;DHT22;25309;48.686;9.170;2022-08-21T14:49:33;32.50;55.50
39621;DHT22;25309;48.686;9.170;2022-08-21T14:52:00;32.40;55.70
39621;DHT22;25309;48.686;9.170;2022-08-21T14:54:28;32.50;56.40
39621;DHT22;25309;48.686;9.170;2022-08-21T14:57:01;32.60;56.50
39621;DHT22;25309;48.686;9.170;2022-08-21T14:59:29;32.50;57.00
39621;DHT22;25309;48.686;9.170;2022-08-21T15:01:56;32.30;56.20
39621;DHT22;25309;48.686;9.170;2022-08-21T15:04:24;32.10;56.10
39621;DHT22;25309;48.686;9.170;2022-08-21T15:06:51;31.90;56.40
39621;DHT22;25309;48.686;9.170;2022-08-21T15:09:18;31.50;56.30
39621;DHT22;25309;48.686;9.170;2022-08-21T15:11:45;31.10;56.60
39621;DHT22;25309;48.686;9.170;2022-08-21T15:14:17;30.70;57.00
39621;DHT22;25309;48.686;9.170;2022-08-21T15:16:45;30.40;57.40
39621;DHT22;25309;48.686;9.170;2022-08-21T15:19:12;30.10;57.80
39621;DHT22;25309;48.686;9.170;2022-08-21T15:21:39;29.90;58.10
39621;DHT22;25309;48.686;9.170;2022-08-21T15:24:06;29.90;58.30
39621;DHT22;25309;48.686;9.170;2022-08-21T15:26:34;29.90;58.60
39621;DHT22;25309;48.686;9.170;2022-08-21T15:29:01;30.10;58.60
39621;DHT22;25309;48.686;9.170;2022-08-21T15:31:33;30.10;57.50
39621;DHT22;25309;48.686;9.170;2022-08-21T15:34:01;30.10;57.50
39621;DHT22;25309;48.686;9.170;2022-08-21T15:36:28;30.20;57.00
39621;DHT22;25309;48.686;9.170;2022-08-21T15:38:55;30.20;58.40
39621;DHT22;25309;48.686;9.170;2022-08-21T15:41:22;30.10;58.20
39621;DHT22;25309;48.686;9.170;2022-08-21T15:43:51;29.80;58.10
39621;DHT22;25309;48.686;9.170;2022-08-21T15:46:20;29.50;58.40
39621;DHT22;25309;48.686;9.170;2022-08-21T15:48:49;29.30;58.70
39621;DHT22;25309;48.686;9.170;2022-08-21T15:51:16;29.20;59.60
39621;DHT22;25309;48.686;9.170;2022-08-21T15:53:43;29.20;59.40
39621;DHT22;25309;48.686;9.170;2022-08-21T15:56:16;29.20;59.30
39621;DHT22;25309;48.686;9.170;2022-08-21T15:58:44;29.10;59.30
39621;DHT22;25309;48.686;9.170;2022-08-21T16:01:11;28.90;59.00